Ville De Bordeaux — FZCE — position and weather

sailwx.info

Track history (hours):
 
Tides and Currents Weather Stations Pressure Air Temp Water Temp Dewpoint Dewpoint Depression Visibility Wind Speed Wind Dir Waves Ship Positions

Ville De Bordeaux

Last reported at 2016-May-26 00:27 UTC. Time now 2016-May-26 00:45 UTC.
Position N 46°42' W 002°27'.

Length 150 m; beam 24 m.

Type: Ship. MMSI: 228084000.

Date/timePositionNaut miles runAvg speedWind from/ knotsBaromVisibWave heightAir tempDewpointWater temp
2016-May-26 00:27N 46°42' W 002°27'1415.3
2016-May-25 23:34N 46°56' W 002°30'1413.7
2016-May-25 22:34N 47°08' W 002°21'1212.1
2016-May-25 21:33N 47°17' W 002°10'0 0.1
2016-May-25 20:29N 47°17' W 002°10'0 0.0
2016-May-25 19:29N 47°17' W 002°10'0 0.0
2016-May-25 18:32N 47°17' W 002°10'0 0.0
2016-May-25 12:29N 47°17' W 002°10'0 0.5
2016-May-25 11:33N 47°17' W 002°10'1211.9
2016-May-25 10:33N 47°08' W 002°22'1916.1
2016-May-25 09:24N 46°57' W 002°44'56116.6
2016-May-23 23:31N 39°11' W 009°52'1717.8
2016-May-23 22:33N 38°54' W 009°51'1817.8
2016-May-23 21:33N 38°36' W 009°48'1717.5
2016-May-23 20:33N 38°19' W 009°43'1817.7
2016-May-23 19:33N 38°02' W 009°38'1817.7
2016-May-23 18:33N 37°45' W 009°33'1717.7
2016-May-23 17:33N 37°28' W 009°27'4916.5
2016-May-23 14:33N 36°43' W 009°01'1817.7
2016-May-23 13:33N 36°41' W 008°39'1817.6
2016-May-23 12:33N 36°40' W 008°17'1917.9
2016-May-23 11:30N 36°39' W 007°54'123 4.7
2016-May-22 09:28N 35°58' W 005°30'1212.8
2016-May-22 08:33N 36°01' W 005°16'19514.9
2016-May-21 19:28N 36°38' W 001°18'23 9.7
2016-May-21 17:05N 36°43' W 000°50'815.1
2016-May-21 16:33N 36°46' W 000°40'2215.7
2016-May-21 15:10N 36°51' W 000°14'1218.5
2016-May-21 14:32N 36°54' E 000°00'2018.8
2016-May-21 13:28N 36°59' E 000°25'1718.6
2016-May-21 12:33N 37°04' E 000°45'39718.0
2016-May-20 14:29N 38°47' E 008°51'2319.2
2016-May-20 13:16N 38°55' E 009°20'9 0.2
2016-May-18 11:27N 38°58' E 009°31'9 9.7
2016-May-18 10:32N 38°55' E 009°20'1010.1
2016-May-18 09:33N 38°52' E 009°08'1010.1
2016-May-18 08:32N 38°48' E 008°56'35410.1
2016-May-16 21:33N 37°14' E 001°43'1110.7
2016-May-16 20:33N 37°12' E 001°30'3410.3
2016-May-16 17:16N 37°02' E 000°49'7 9.8
2016-May-16 16:33N 37°00' E 000°40'10 9.8
2016-May-16 15:33N 36°58' E 000°28'19 9.6
2016-May-16 13:31N 36°52' E 000°05'4010.0
2016-May-16 09:33N 36°42' W 000°43'2711.0
2016-May-16 07:07N 36°35' W 001°15'  
Track history (hours):
 
Tides and Currents Weather Stations Pressure Air Temp Water Temp Dewpoint Dewpoint Depression Visibility Wind Speed Wind Dir Waves Ship Positions

Ville De Bordeaux

Last reported at 2016-May-26 00:27 UTC. Time now 2016-May-26 00:45 UTC.
Position N 46°42' W 002°27'.

Length 150 m; beam 24 m.

Type: Ship. MMSI: 228084000.

Date/timePositionNaut miles runAvg speedWind from/ knotsBaromVisibWave heightAir tempDewpointWater temp
2016-May-26 00:27N 46°42' W 002°27'1415.3
2016-May-25 23:34N 46°56' W 002°30'1413.7
2016-May-25 22:34N 47°08' W 002°21'1212.1
2016-May-25 21:33N 47°17' W 002°10'0 0.1
2016-May-25 20:29N 47°17' W 002°10'0 0.0
2016-May-25 19:29N 47°17' W 002°10'0 0.0
2016-May-25 18:32N 47°17' W 002°10'0 0.0
2016-May-25 12:29N 47°17' W 002°10'0 0.5
2016-May-25 11:33N 47°17' W 002°10'1211.9
2016-May-25 10:33N 47°08' W 002°22'1916.1
2016-May-25 09:24N 46°57' W 002°44'56116.6
2016-May-23 23:31N 39°11' W 009°52'1717.8
2016-May-23 22:33N 38°54' W 009°51'1817.8
2016-May-23 21:33N 38°36' W 009°48'1717.5
2016-May-23 20:33N 38°19' W 009°43'1817.7
2016-May-23 19:33N 38°02' W 009°38'1817.7
2016-May-23 18:33N 37°45' W 009°33'1717.7
2016-May-23 17:33N 37°28' W 009°27'4916.5
2016-May-23 14:33N 36°43' W 009°01'1817.7
2016-May-23 13:33N 36°41' W 008°39'1817.6
2016-May-23 12:33N 36°40' W 008°17'1917.9
2016-May-23 11:30N 36°39' W 007°54'123 4.7
2016-May-22 09:28N 35°58' W 005°30'1212.8
2016-May-22 08:33N 36°01' W 005°16'19514.9
2016-May-21 19:28N 36°38' W 001°18'23 9.7
2016-May-21 17:05N 36°43' W 000°50'815.1
2016-May-21 16:33N 36°46' W 000°40'2215.7
2016-May-21 15:10N 36°51' W 000°14'1218.5
2016-May-21 14:32N 36°54' E 000°00'2018.8
2016-May-21 13:28N 36°59' E 000°25'1718.6
2016-May-21 12:33N 37°04' E 000°45'39718.0
2016-May-20 14:29N 38°47' E 008°51'2319.2
2016-May-20 13:16N 38°55' E 009°20'9 0.2
2016-May-18 11:27N 38°58' E 009°31'9 9.7
2016-May-18 10:32N 38°55' E 009°20'1010.1
2016-May-18 09:33N 38°52' E 009°08'1010.1
2016-May-18 08:32N 38°48' E 008°56'35410.1
2016-May-16 21:33N 37°14' E 001°43'1110.7
2016-May-16 20:33N 37°12' E 001°30'3410.3
2016-May-16 17:16N 37°02' E 000°49'7 9.8
2016-May-16 16:33N 37°00' E 000°40'10 9.8
2016-May-16 15:33N 36°58' E 000°28'19 9.6
2016-May-16 13:31N 36°52' E 000°05'4010.0
2016-May-16 09:33N 36°42' W 000°43'2711.0
2016-May-16 07:07N 36°35' W 001°15'  

Dump ship's entire track history